createdAt,value
2023-02-28T00:01:21.777Z,14.63
2023-02-28T00:03:50.097Z,16.33
2023-02-28T00:06:17.277Z,12.83
2023-02-28T00:08:44.412Z,13.97
2023-02-28T00:11:14.330Z,19.70
2023-02-28T00:13:44.230Z,13.47
2023-02-28T00:16:14.093Z,9.43
2023-02-28T00:18:42.521Z,10.80
2023-02-28T00:21:10.832Z,14.50
2023-02-28T00:23:38.242Z,13.00
2023-02-28T00:26:05.386Z,12.90
2023-02-28T00:28:32.302Z,11.90
2023-02-28T00:31:00.869Z,10.93
2023-02-28T00:33:29.518Z,12.77
2023-02-28T00:36:04.375Z,11.33
2023-02-28T00:38:32.876Z,13.60
2023-02-28T00:41:05.319Z,13.90
2023-02-28T00:43:34.144Z,16.03
2023-02-28T00:46:01.332Z,14.30
2023-02-28T00:48:28.618Z,16.10
2023-02-28T00:50:55.508Z,15.93
2023-02-28T00:53:23.331Z,15.73
2023-02-28T00:55:52.094Z,14.17
2023-02-28T00:58:19.518Z,17.77
2023-02-28T01:00:50.286Z,14.40
2023-02-28T01:03:18.855Z,12.43
2023-02-28T01:05:46.746Z,19.40
2023-02-28T01:08:14.996Z,14.33
2023-02-28T01:10:42.178Z,12.80
2023-02-28T01:13:10.804Z,14.80
2023-02-28T01:15:38.120Z,11.63
2023-02-28T01:18:05.355Z,14.43
2023-02-28T01:20:32.201Z,12.17
2023-02-28T01:22:59.354Z,9.93
2023-02-28T01:25:26.413Z,14.60
2023-02-28T01:27:53.658Z,11.77
2023-02-28T01:30:22.040Z,15.30
2023-02-28T01:32:49.197Z,9.97
2023-02-28T01:35:16.142Z,12.67
2023-02-28T01:37:43.362Z,11.57
2023-02-28T01:40:11.311Z,10.93
2023-02-28T01:42:38.599Z,13.23
2023-02-28T01:45:20.079Z,12.10
2023-02-28T01:47:51.320Z,10.97
2023-02-28T01:50:21.496Z,14.40
2023-02-28T01:52:50.398Z,11.77
2023-02-28T01:55:19.486Z,9.13
2023-02-28T01:57:49.569Z,14.30
2023-02-28T02:00:19.003Z,11.73
2023-02-28T02:02:53.817Z,8.77
2023-02-28T02:05:23.051Z,9.77
2023-02-28T02:07:54.271Z,12.30
2023-02-28T02:10:23.346Z,12.67
2023-02-28T02:13:09.578Z,12.17
2023-02-28T02:15:43.406Z,11.40
2023-02-28T02:18:20.416Z,10.50
2023-02-28T02:21:05.263Z,10.37
2023-02-28T02:24:20.466Z,12.27
2023-02-28T02:26:59.292Z,11.17
2023-02-28T02:29:54.752Z,11.93
2023-02-28T02:32:41.441Z,9.33
2023-02-28T02:35:15.705Z,7.87
2023-02-28T02:37:48.508Z,8.40
2023-02-28T02:40:18.742Z,12.30
2023-02-28T02:42:51.971Z,9.07
2023-02-28T02:45:24.033Z,8.43
2023-02-28T02:47:53.611Z,8.67
2023-02-28T02:50:26.123Z,9.63
2023-02-28T02:56:53.782Z,13.30
2023-02-28T02:59:24.717Z,10.73
2023-02-28T03:01:54.660Z,7.83
2023-02-28T03:04:24.066Z,9.57
2023-02-28T03:06:56.550Z,11.30
2023-02-28T03:09:23.482Z,9.13
2023-02-28T03:11:53.305Z,8.97
2023-02-28T03:14:29.161Z,7.30
2023-02-28T03:17:10.009Z,6.83
2023-02-28T03:19:49.686Z,8.00
2023-02-28T03:22:32.966Z,10.80
2023-02-28T03:25:08.394Z,11.30
2023-02-28T03:27:41.237Z,9.37
2023-02-28T03:30:12.856Z,11.07
2023-02-28T03:32:47.688Z,8.70
2023-02-28T03:35:22.957Z,10.13
2023-02-28T03:37:56.996Z,9.37
2023-02-28T03:40:27.062Z,7.50
2023-02-28T03:43:00.835Z,6.07
2023-02-28T03:45:31.583Z,6.13
2023-02-28T03:48:03.811Z,9.53
2023-02-28T03:50:37.968Z,13.13
2023-02-28T03:53:12.333Z,6.77
2023-02-28T03:55:45.631Z,6.90
2023-02-28T03:58:18.424Z,8.53
2023-02-28T04:00:50.075Z,10.70
2023-02-28T04:03:17.016Z,6.47
2023-02-28T04:05:52.272Z,6.90
2023-02-28T04:08:20.879Z,7.27
2023-02-28T04:10:52.846Z,7.83
2023-02-28T04:13:19.935Z,6.77
2023-02-28T04:15:46.735Z,10.00
2023-02-28T04:18:13.843Z,9.63
2023-02-28T04:20:40.692Z,6.93
2023-02-28T04:23:07.835Z,8.77
2023-02-28T04:25:36.029Z,8.97
2023-02-28T04:28:03.136Z,7.13
2023-02-28T04:30:30.596Z,10.23
2023-02-28T04:32:57.642Z,11.63
2023-02-28T04:35:24.564Z,7.43
2023-02-28T04:37:51.566Z,8.17
2023-02-28T04:40:18.532Z,6.73
2023-02-28T04:42:47.060Z,6.73
2023-02-28T04:45:13.911Z,7.07
2023-02-28T04:47:41.072Z,8.13
2023-02-28T04:50:09.646Z,7.67
2023-02-28T04:52:36.453Z,9.93
2023-02-28T04:55:03.782Z,7.73
2023-02-28T04:57:30.995Z,6.63
2023-02-28T04:59:59.156Z,7.30
2023-02-28T05:02:26.012Z,8.90
2023-02-28T05:04:53.178Z,9.00
2023-02-28T05:07:19.972Z,9.30
2023-02-28T05:09:47.091Z,10.10
2023-02-28T05:12:13.897Z,12.10
2023-02-28T05:14:41.107Z,9.50
2023-02-28T05:17:10.184Z,8.43
2023-02-28T05:19:37.314Z,7.63
2023-02-28T05:22:04.159Z,8.83
2023-02-28T05:24:31.668Z,6.50
2023-02-28T05:26:58.871Z,8.40
2023-02-28T05:29:25.964Z,8.63
2023-02-28T05:31:52.878Z,10.23
2023-02-28T05:34:21.842Z,13.53
2023-02-28T05:36:48.601Z,10.03
2023-02-28T05:39:15.770Z,9.37
2023-02-28T05:41:43.498Z,9.77
2023-02-28T05:44:11.296Z,9.43
2023-02-28T05:46:39.365Z,11.43
2023-02-28T05:49:06.620Z,12.43
2023-02-28T05:51:37.226Z,9.40
2023-02-28T05:54:04.603Z,9.40
2023-02-28T05:56:31.520Z,15.57
2023-02-28T05:58:59.361Z,11.13
2023-02-28T06:01:33.634Z,8.37
2023-02-28T06:04:01.969Z,41.47
2023-02-28T06:06:29.182Z,19.43
2023-02-28T06:08:58.003Z,12.50
2023-02-28T06:11:28.502Z,10.60
2023-02-28T06:13:57.537Z,10.30
2023-02-28T06:16:25.294Z,8.07
2023-02-28T06:18:53.790Z,12.17
2023-02-28T06:21:20.639Z,13.00
2023-02-28T06:23:47.580Z,13.53
2023-02-28T06:26:16.041Z,11.37
2023-02-28T06:28:43.289Z,12.40
2023-02-28T06:31:12.689Z,10.97
2023-02-28T06:33:40.727Z,10.27
2023-02-28T06:36:09.006Z,20.67
2023-02-28T06:38:36.472Z,12.93
2023-02-28T06:41:03.926Z,12.97
2023-02-28T06:43:34.551Z,9.30
2023-02-28T06:46:03.395Z,11.67
2023-02-28T06:48:30.373Z,10.27
2023-02-28T06:51:03.578Z,11.27
2023-02-28T06:53:30.592Z,13.70
2023-02-28T06:55:57.456Z,14.37
2023-02-28T06:58:24.771Z,14.43
2023-02-28T07:00:53.700Z,10.30
2023-02-28T07:03:20.654Z,10.07
2023-02-28T07:05:47.656Z,10.37
2023-02-28T07:08:14.674Z,10.40
2023-02-28T07:10:42.203Z,14.53
2023-02-28T07:13:09.955Z,12.37
2023-02-28T07:15:41.216Z,12.70
2023-02-28T07:18:10.613Z,16.77
2023-02-28T07:20:37.476Z,12.70
2023-02-28T07:23:04.651Z,10.67
2023-02-28T07:25:31.442Z,12.17
2023-02-28T07:28:00.041Z,10.87
2023-02-28T07:30:27.292Z,8.43
2023-02-28T07:32:57.034Z,9.17
2023-02-28T07:35:25.331Z,8.80
2023-02-28T07:37:52.510Z,11.33
2023-02-28T07:40:19.993Z,14.33
2023-02-28T07:42:46.891Z,8.23
2023-02-28T07:45:13.813Z,14.13
2023-02-28T07:47:41.744Z,8.70
2023-02-28T07:50:11.377Z,10.13
2023-02-28T07:52:40.513Z,9.90
2023-02-28T07:55:10.504Z,8.13
2023-02-28T07:57:37.538Z,7.17
2023-02-28T08:00:05.402Z,9.33
2023-02-28T08:02:32.321Z,9.57
2023-02-28T08:05:00.690Z,17.23
2023-02-28T08:07:27.960Z,9.00
2023-02-28T08:09:56.139Z,6.43
2023-02-28T08:12:22.972Z,11.10
2023-02-28T08:14:50.158Z,7.30
2023-02-28T08:17:17.179Z,7.17
2023-02-28T08:19:46.717Z,7.90
2023-02-28T08:22:13.684Z,9.60
2023-02-28T08:24:43.492Z,7.97
2023-02-28T08:27:11.715Z,7.23
2023-02-28T08:29:39.613Z,7.33
2023-02-28T08:32:14.560Z,7.20
2023-02-28T08:34:48.173Z,13.93
2023-02-28T08:37:15.109Z,8.47
2023-02-28T08:39:42.136Z,16.67
2023-02-28T08:42:09.031Z,12.03
2023-02-28T08:44:37.636Z,7.83
2023-02-28T08:47:04.568Z,8.73
2023-02-28T08:49:31.716Z,7.20
2023-02-28T08:51:59.852Z,8.90
2023-02-28T08:54:26.657Z,6.47
2023-02-28T08:56:53.429Z,6.13
2023-02-28T08:59:20.588Z,12.23
2023-02-28T09:01:48.751Z,5.23
2023-02-28T09:04:18.623Z,6.27
2023-02-28T09:06:47.311Z,7.47
2023-02-28T09:09:14.167Z,5.80
2023-02-28T09:11:41.117Z,5.73
2023-02-28T09:14:08.014Z,13.43
2023-02-28T09:16:35.562Z,8.63
2023-02-28T09:19:04.007Z,8.90
2023-02-28T09:21:31.109Z,10.53
2023-02-28T09:23:58.249Z,6.87
2023-02-28T09:26:28.145Z,11.70
2023-02-28T09:29:00.135Z,6.60
2023-02-28T09:31:29.109Z,9.03
2023-02-28T09:33:58.421Z,11.07
2023-02-28T09:36:43.199Z,7.67
2023-02-28T09:39:10.817Z,20.13
2023-02-28T09:41:49.472Z,10.10
2023-02-28T09:44:22.706Z,18.20
2023-02-28T09:46:54.317Z,8.00
2023-02-28T09:49:25.133Z,7.10
2023-02-28T09:52:00.177Z,7.80
2023-02-28T09:54:30.879Z,6.77
2023-02-28T09:57:03.943Z,4.83
2023-02-28T09:59:39.821Z,8.43
2023-02-28T10:02:22.572Z,8.67
2023-02-28T10:04:55.809Z,7.73
2023-02-28T10:07:42.407Z,6.43
2023-02-28T10:10:21.086Z,5.00
2023-02-28T10:12:49.989Z,4.50
2023-02-28T10:15:18.433Z,3.50
2023-02-28T10:17:55.487Z,4.37
2023-02-28T10:20:36.774Z,3.80
2023-02-28T10:23:11.096Z,12.27
2023-02-28T10:25:39.243Z,5.80
2023-02-28T10:28:12.292Z,4.23
2023-02-28T10:30:42.282Z,5.23
2023-02-28T10:33:23.187Z,3.87
2023-02-28T10:35:50.326Z,3.87
2023-02-28T10:38:22.440Z,5.40
2023-02-28T10:40:49.396Z,5.67
2023-02-28T10:43:24.771Z,4.20
2023-02-28T10:46:02.177Z,6.70
2023-02-28T10:48:34.953Z,3.87
2023-02-28T10:51:02.666Z,2.40
2023-02-28T10:53:52.534Z,5.30
2023-02-28T10:56:25.775Z,3.93
2023-02-28T10:58:56.036Z,4.70
2023-02-28T11:01:24.976Z,6.20
2023-02-28T11:03:53.530Z,4.43
2023-02-28T11:06:23.391Z,2.83
2023-02-28T11:08:56.760Z,3.73
2023-02-28T11:11:26.484Z,3.07
2023-02-28T11:13:57.296Z,3.53
2023-02-28T11:16:33.920Z,4.77
2023-02-28T11:19:01.276Z,4.50
2023-02-28T11:21:31.268Z,3.70
2023-02-28T11:24:04.973Z,3.90
2023-02-28T11:26:40.392Z,3.43
2023-02-28T11:29:20.103Z,4.13
2023-02-28T11:32:19.466Z,6.10
2023-02-28T11:34:48.792Z,5.67
2023-02-28T11:37:18.837Z,4.47
2023-02-28T11:39:47.790Z,5.37
2023-02-28T11:42:39.354Z,3.40
2023-02-28T11:45:21.103Z,4.20
2023-02-28T11:47:55.050Z,5.93
2023-02-28T11:50:40.169Z,3.33
2023-02-28T11:53:15.241Z,6.97
2023-02-28T11:55:49.677Z,4.73
2023-02-28T11:58:29.127Z,5.03
2023-02-28T12:01:15.539Z,3.87
2023-02-28T12:03:52.244Z,2.43
2023-02-28T12:06:25.800Z,4.83
2023-02-28T12:09:12.950Z,3.20
2023-02-28T12:11:51.699Z,3.20
2023-02-28T12:14:43.483Z,9.90
2023-02-28T12:17:22.972Z,7.80
2023-02-28T12:19:57.693Z,4.57
2023-02-28T12:22:41.500Z,4.10
2023-02-28T12:25:41.961Z,4.13
2023-02-28T12:28:13.451Z,3.75
2023-02-28T12:30:48.037Z,5.05
2023-02-28T12:33:17.568Z,2.88
2023-02-28T12:35:50.772Z,2.40
2023-02-28T12:38:23.031Z,5.25
2023-02-28T12:40:54.951Z,7.35
2023-02-28T12:43:28.622Z,3.85
2023-02-28T12:45:59.626Z,3.05
2023-02-28T12:48:32.941Z,2.35
2023-02-28T12:51:03.173Z,3.35
2023-02-28T12:53:38.827Z,3.35
2023-02-28T12:56:15.003Z,2.42
2023-02-28T12:58:48.178Z,2.55
2023-02-28T13:01:37.384Z,4.25
2023-02-28T13:04:34.271Z,3.60
2023-02-28T13:07:18.711Z,5.72
2023-02-28T13:09:57.379Z,2.22
2023-02-28T13:12:25.448Z,2.63
2023-02-28T13:15:05.576Z,4.28
2023-02-28T13:17:33.284Z,2.45
2023-02-28T13:20:01.301Z,3.80
2023-02-28T13:22:40.410Z,2.60
2023-02-28T13:25:52.695Z,2.78
2023-02-28T13:28:55.204Z,3.60
2023-02-28T13:31:23.780Z,2.83
2023-02-28T13:34:13.125Z,2.63
2023-02-28T13:36:40.422Z,4.43
2023-02-28T13:39:40.807Z,18.48
2023-02-28T13:42:37.407Z,4.45
2023-02-28T13:45:26.571Z,3.80
2023-02-28T13:47:59.413Z,3.03
2023-02-28T13:50:31.917Z,2.40
2023-02-28T13:53:35.596Z,2.70
2023-02-28T13:56:11.328Z,3.67
2023-02-28T13:58:56.413Z,5.55
2023-02-28T14:01:52.645Z,2.75
2023-02-28T14:04:49.502Z,4.80
2023-02-28T14:07:23.038Z,2.60
2023-02-28T14:09:58.482Z,3.78
2023-02-28T14:12:53.560Z,4.15
2023-02-28T14:15:45.422Z,2.85
2023-02-28T14:18:28.033Z,2.90
2023-02-28T14:21:02.745Z,4.80
2023-02-28T14:23:51.220Z,3.17
2023-02-28T14:26:33.957Z,4.05
2023-02-28T14:29:37.175Z,3.55
2023-02-28T14:32:12.294Z,4.63
2023-02-28T14:34:46.573Z,7.53
2023-02-28T14:37:21.185Z,3.50
2023-02-28T14:39:49.104Z,4.80
2023-02-28T14:42:33.987Z,3.45
2023-02-28T14:45:01.053Z,3.33
2023-02-28T14:47:31.873Z,4.57
2023-02-28T14:49:59.651Z,2.40
2023-02-28T14:52:30.996Z,3.05
2023-02-28T14:55:03.905Z,3.13
2023-02-28T14:57:33.720Z,3.05
2023-02-28T15:00:05.065Z,4.47
2023-02-28T15:02:35.176Z,6.18
2023-02-28T15:05:11.107Z,3.78
2023-02-28T15:07:39.698Z,5.03
2023-02-28T15:10:20.205Z,3.25
2023-02-28T15:12:53.706Z,6.45
2023-02-28T15:15:28.146Z,4.60
2023-02-28T15:18:05.974Z,3.22
2023-02-28T15:20:34.081Z,5.10
2023-02-28T15:23:03.079Z,5.70
2023-02-28T15:25:30.021Z,5.78
2023-02-28T15:27:58.342Z,3.78
2023-02-28T15:30:27.799Z,4.03
2023-02-28T15:33:09.293Z,7.30
2023-02-28T15:35:37.092Z,13.70
2023-02-28T15:38:16.378Z,13.10
2023-02-28T15:40:45.979Z,4.10
2023-02-28T15:43:17.744Z,5.97
2023-02-28T15:45:48.058Z,4.23
2023-02-28T15:48:19.542Z,4.90
2023-02-28T15:50:49.854Z,3.50
2023-02-28T15:53:22.823Z,6.20
2023-02-28T15:55:57.600Z,4.87
2023-02-28T15:58:25.860Z,4.97
2023-02-28T16:01:06.638Z,4.47
2023-02-28T16:03:42.059Z,4.97
2023-02-28T16:06:33.010Z,7.57
2023-02-28T16:09:01.577Z,4.40
2023-02-28T16:11:29.284Z,5.63
2023-02-28T16:13:56.331Z,5.60
2023-02-28T16:16:25.812Z,6.37
2023-02-28T16:18:53.860Z,11.53
2023-02-28T16:21:20.827Z,13.60
2023-02-28T16:23:48.028Z,17.80
2023-02-28T16:26:22.051Z,12.23
2023-02-28T16:28:49.761Z,7.30
2023-02-28T16:31:17.554Z,5.50
2023-02-28T16:33:46.006Z,8.87
2023-02-28T16:36:18.389Z,7.80
2023-02-28T16:38:46.146Z,6.33
2023-02-28T16:41:19.986Z,6.77
2023-02-28T16:43:49.769Z,7.00
2023-02-28T16:46:17.770Z,8.40
2023-02-28T16:48:45.518Z,10.87
2023-02-28T16:51:16.707Z,9.93
2023-02-28T16:53:44.232Z,7.37
2023-02-28T16:56:19.372Z,10.23
2023-02-28T16:58:47.638Z,12.83
2023-02-28T17:01:15.211Z,12.90
2023-02-28T17:03:42.895Z,12.40
2023-02-28T17:06:19.091Z,11.33
2023-02-28T17:08:46.117Z,11.97
2023-02-28T17:11:13.002Z,11.60
2023-02-28T17:13:41.515Z,10.57
2023-02-28T17:16:18.539Z,9.67
2023-02-28T17:18:45.803Z,8.53
2023-02-28T17:21:15.127Z,9.80
2023-02-28T17:23:42.451Z,7.50
2023-02-28T17:26:14.347Z,7.23
2023-02-28T17:28:42.706Z,7.73
2023-02-28T17:31:10.289Z,10.20
2023-02-28T17:33:37.573Z,9.27
2023-02-28T17:36:04.991Z,12.77
2023-02-28T17:38:32.227Z,15.13
2023-02-28T17:40:59.067Z,14.50
2023-02-28T17:43:26.961Z,11.87
2023-02-28T17:45:55.757Z,13.50
2023-02-28T17:48:22.636Z,16.07
2023-02-28T17:50:49.464Z,35.33
2023-02-28T17:53:16.969Z,16.87
2023-02-28T17:55:43.898Z,14.70
2023-02-28T17:58:14.938Z,15.50
2023-02-28T18:00:41.833Z,10.80
2023-02-28T18:03:10.953Z,12.97
2023-02-28T18:05:38.194Z,11.73
2023-02-28T18:08:05.091Z,19.70
2023-02-28T18:10:34.201Z,18.57
2023-02-28T18:13:01.194Z,15.43
2023-02-28T18:15:27.985Z,11.93
2023-02-28T18:17:54.828Z,14.03
2023-02-28T18:20:22.965Z,10.60
2023-02-28T18:22:49.784Z,9.23
2023-02-28T18:25:17.909Z,10.67
2023-02-28T18:27:54.059Z,5.93
2023-02-28T18:30:21.730Z,9.47
2023-02-28T18:32:48.596Z,10.23
2023-02-28T18:35:15.796Z,9.20
2023-02-28T18:37:44.370Z,13.27
2023-02-28T18:40:12.550Z,12.13
2023-02-28T18:42:39.616Z,14.40
2023-02-28T18:45:07.983Z,14.63
2023-02-28T18:47:35.411Z,16.50
2023-02-28T18:50:02.305Z,15.53
2023-02-28T18:52:29.560Z,17.87
2023-02-28T18:54:57.693Z,14.90
2023-02-28T18:57:24.849Z,16.07
2023-02-28T18:59:51.888Z,15.63
2023-02-28T19:02:19.369Z,16.80
2023-02-28T19:04:46.272Z,16.60
2023-02-28T19:07:13.148Z,20.67
2023-02-28T19:09:40.048Z,19.47
2023-02-28T19:12:08.637Z,18.33
2023-02-28T19:14:35.706Z,20.90
2023-02-28T19:17:02.607Z,15.80
2023-02-28T19:19:29.506Z,24.97
2023-02-28T19:21:56.583Z,78.07
2023-02-28T19:24:23.329Z,31.53
2023-02-28T19:26:50.372Z,19.70
2023-02-28T19:29:18.524Z,14.10
2023-02-28T19:31:46.482Z,12.77
2023-02-28T19:34:13.371Z,25.10
2023-02-28T19:36:40.492Z,16.27
2023-02-28T19:39:07.301Z,17.30
2023-02-28T19:41:34.183Z,12.13
2023-02-28T19:44:01.063Z,11.20
2023-02-28T19:46:29.309Z,14.53
2023-02-28T19:48:56.247Z,15.67
2023-02-28T19:51:24.206Z,15.57
2023-02-28T19:53:51.322Z,15.23
2023-02-28T19:56:18.219Z,18.17
2023-02-28T19:58:45.176Z,18.17
2023-02-28T20:01:14.202Z,20.90
2023-02-28T20:03:43.366Z,23.67
2023-02-28T20:06:13.732Z,18.30
2023-02-28T20:08:41.350Z,26.53
2023-02-28T20:11:16.058Z,24.67
2023-02-28T20:13:43.831Z,24.33
2023-02-28T20:16:12.689Z,35.57
2023-02-28T20:18:40.945Z,24.77
2023-02-28T20:21:09.904Z,21.73
2023-02-28T20:23:38.026Z,22.30
2023-02-28T20:26:05.099Z,23.93
2023-02-28T20:28:32.288Z,23.30
2023-02-28T20:31:00.732Z,20.23
2023-02-28T20:33:27.802Z,20.47
2023-02-28T20:35:59.908Z,25.77
2023-02-28T20:38:28.461Z,20.83
2023-02-28T20:40:56.723Z,25.20
2023-02-28T20:43:23.990Z,20.67
2023-02-28T20:45:51.519Z,19.17
2023-02-28T20:48:18.485Z,22.70
2023-02-28T20:50:48.721Z,22.17
2023-02-28T20:53:15.895Z,19.63
2023-02-28T20:55:53.765Z,20.77
2023-02-28T20:58:20.850Z,24.00
2023-02-28T21:00:47.852Z,23.13
2023-02-28T21:03:14.748Z,22.20
2023-02-28T21:05:41.570Z,19.50
2023-02-28T21:08:08.442Z,23.87
2023-02-28T21:10:35.242Z,22.50
2023-02-28T21:13:03.405Z,19.70
2023-02-28T21:15:30.293Z,18.67
2023-02-28T21:17:57.204Z,26.30
2023-02-28T21:20:24.128Z,21.60
2023-02-28T21:22:51.716Z,22.43
2023-02-28T21:25:18.838Z,22.77
2023-02-28T21:27:45.999Z,20.87
2023-02-28T21:30:14.410Z,22.37
2023-02-28T21:32:41.380Z,17.73
2023-02-28T21:35:08.929Z,18.30
2023-02-28T21:37:37.760Z,18.33
2023-02-28T21:40:05.290Z,18.20
2023-02-28T21:42:32.546Z,20.97
2023-02-28T21:45:00.848Z,19.07
2023-02-28T21:47:30.455Z,23.40
2023-02-28T21:49:57.228Z,20.57
2023-02-28T21:52:24.563Z,22.43
2023-02-28T21:54:51.488Z,30.10
2023-02-28T21:57:18.393Z,25.80
2023-02-28T21:59:45.628Z,25.93
2023-02-28T22:02:13.250Z,21.67
2023-02-28T22:04:42.429Z,26.17
2023-02-28T22:07:09.260Z,21.70
2023-02-28T22:09:36.112Z,20.20
2023-02-28T22:12:03.191Z,20.00
2023-02-28T22:14:30.000Z,17.40
2023-02-28T22:16:57.334Z,17.57
2023-02-28T22:19:24.691Z,18.33
2023-02-28T22:21:54.121Z,19.60
2023-02-28T22:24:24.129Z,21.40
2023-02-28T22:26:51.777Z,17.80
2023-02-28T22:29:18.943Z,19.27
2023-02-28T22:31:45.971Z,17.90
2023-02-28T22:34:13.424Z,22.23
2023-02-28T22:36:41.094Z,19.00
2023-02-28T22:39:09.733Z,21.70
2023-02-28T22:41:37.076Z,23.37
2023-02-28T22:44:05.209Z,23.07
2023-02-28T22:46:34.550Z,21.03
2023-02-28T22:49:03.381Z,19.53
2023-02-28T22:51:31.009Z,19.50
2023-02-28T22:53:58.638Z,22.50
2023-02-28T22:56:29.372Z,21.47
2023-02-28T22:58:57.784Z,19.87
2023-02-28T23:01:27.278Z,19.47
2023-02-28T23:03:55.480Z,19.20
2023-02-28T23:06:24.738Z,23.33
2023-02-28T23:08:53.251Z,17.83
2023-02-28T23:11:21.786Z,20.73
2023-02-28T23:13:59.389Z,23.60
2023-02-28T23:16:29.837Z,30.27
2023-02-28T23:18:57.890Z,24.50
2023-02-28T23:21:25.855Z,20.53
2023-02-28T23:23:52.951Z,21.47
2023-02-28T23:26:20.330Z,19.97
2023-02-28T23:28:47.124Z,21.93
2023-02-28T23:31:15.819Z,20.73
2023-02-28T23:33:42.834Z,19.97
2023-02-28T23:36:11.597Z,16.30
2023-02-28T23:38:39.264Z,21.60
2023-02-28T23:41:10.118Z,19.97
2023-02-28T23:43:37.504Z,18.80
2023-02-28T23:46:05.207Z,14.67
2023-02-28T23:48:33.818Z,22.30
2023-02-28T23:51:02.012Z,16.47
2023-02-28T23:53:31.474Z,18.17
2023-02-28T23:55:58.590Z,23.17
2023-02-28T23:58:25.541Z,19.40
